Decoded Metar for KDIJ (DRIGGS REED MEM in ID, USA) (IATA:DIJ) | Meteo·Mobile Aviation Weather
aviador You're here:

KDIJ Decoded Metar

DRIGGS REED MEM in ID, USA
Report Time2018-12-18 21:15:00
UTC Time2018-12-18 21:32:27
Flight Rules mvfr MVFR
Wind180° at 06 kt
W.Decomp.*RWY 21: 4.5 kt HW 4 kt LCW
W.Rank180° ranks 3
Current wind is below 180° avg. (8.5)
Visibility6437 m
Phenomena:Light Snow
Clouds:Scattered 019 Hf
Overcast 028 Hf
Expected CloudBase > 1,200 ft AGL from Temp-Dew spread
Ceiling2,800 ft
Temp01°C (ISA -2)
Dew Point-2°C (81% RH)
AAT-3.4°C
QNH1019 hPa
Density Alt5,919 ft
Elevation6,230 ft
Report Wrong Elevation
Raw Report
KDIJ 182115Z AUTO 18006KT 4SM -SN SCT019 OVC028 01/M02 A3008 RMK
AO2 UPE2057RAB2057E10SNB10 P0000=

Extra information for KDIJ:More info

Metar Taf Metar & Taf Last 4 Metars F.Rules Stats Wind Profile Meteogram Temp Stats Airport Information Weather charts Add Link Nearby VenuesMetar ALERT Operation Metar Decoded Social comments

AIRNAV info for KDIJ